Time;durP1;ratioP1;P1;durP2;ratioP2;P2;SDS_P1;SDS_P2;PMS_P1;PMS_P2;Temp;Humidity;BMP_temperature;BMP_pressure;BME280_temperature;BME280_humidity;BME280_pressure;Samples;Min_cycle;Max_cycle;Signal;HPM_P1;HPM_P2
2023/12/27 00:01:47;;;;;;;8.13;2.37;;;8.50;26.90;;;;;;5035625;28;46435;-76
2023/12/27 00:04:13;;;;;;;5.70;2.20;;;8.50;26.90;;;;;;5037146;28;47648;-77
2023/12/27 00:06:39;;;;;;;6.37;2.20;;;8.50;27.10;;;;;;5021609;28;46834;-76
2023/12/27 00:09:06;;;;;;;7.10;2.10;;;8.50;26.80;;;;;;5037209;28;46522;-76
2023/12/27 00:11:32;;;;;;;6.50;2.23;;;8.50;26.70;;;;;;5035620;28;47165;-76
2023/12/27 00:13:58;;;;;;;5.70;2.20;;;8.50;26.70;;;;;;5037048;28;46357;-79
2023/12/27 00:16:24;;;;;;;6.10;2.20;;;8.50;26.70;;;;;;5036943;28;46459;-77
2023/12/27 00:18:49;;;;;;;4.10;2.00;;;8.50;26.70;;;;;;5038546;28;46899;-77
2023/12/27 00:21:15;;;;;;;7.33;3.17;;;8.60;26.80;;;;;;5037526;28;46789;-77
2023/12/27 00:23:40;;;;;;;5.97;2.23;;;8.60;26.60;;;;;;5039100;28;46615;-76
2023/12/27 00:26:06;;;;;;;6.07;2.60;;;8.60;26.50;;;;;;5038738;28;46251;-77
2023/12/27 00:28:32;;;;;;;6.77;2.07;;;8.60;26.50;;;;;;5038834;28;46452;-77
2023/12/27 00:30:57;;;;;;;5.37;1.93;;;8.70;26.50;;;;;;5038350;28;46501;-77
2023/12/27 00:33:24;;;;;;;10.73;2.57;;;8.70;26.40;;;;;;5038551;28;46586;-76
2023/12/27 00:35:49;;;;;;;7.57;2.30;;;8.70;26.40;;;;;;5038330;28;45818;-76
2023/12/27 00:38:15;;;;;;;5.80;2.30;;;8.70;26.00;;;;;;5037594;28;46720;-78
2023/12/27 00:40:41;;;;;;;5.30;2.57;;;8.60;26.10;;;;;;5020435;28;46382;-76
2023/12/27 00:43:07;;;;;;;7.00;2.70;;;8.60;26.20;;;;;;5038117;28;46345;-77
2023/12/27 00:45:32;;;;;;;7.87;2.53;;;8.60;26.40;;;;;;5037769;28;46472;-76
2023/12/27 00:47:58;;;;;;;11.93;2.80;;;8.60;26.30;;;;;;5036501;28;45831;-76
2023/12/27 00:50:23;;;;;;;12.10;2.50;;;8.60;26.50;;;;;;5038720;28;46424;-76
2023/12/27 00:52:49;;;;;;;7.20;2.60;;;8.60;26.60;;;;;;5037846;28;46613;-76
2023/12/27 00:55:14;;;;;;;11.60;3.20;;;8.60;26.50;;;;;;5037899;28;46395;-77
2023/12/27 00:57:40;;;;;;;7.43;2.80;;;8.60;26.40;;;;;;5040436;28;46451;-77
2023/12/27 01:00:06;;;;;;;12.17;3.07;;;8.60;26.20;;;;;;5038130;28;46619;-76
2023/12/27 01:02:34;;;;;;;9.77;2.97;;;8.60;26.30;;;;;;5038285;28;46483;-76
2023/12/27 01:05:00;;;;;;;9.47;3.17;;;8.60;26.50;;;;;;5035647;28;46698;-76
2023/12/27 01:07:26;;;;;;;6.80;2.37;;;8.60;26.70;;;;;;5038668;28;46708;-76
2023/12/27 01:09:51;;;;;;;10.80;4.50;;;8.50;26.80;;;;;;5036730;28;46552;-76
2023/12/27 01:12:17;;;;;;;5.87;2.90;;;8.50;27.00;;;;;;5039084;28;46187;-77
2023/12/27 01:14:43;;;;;;;7.20;2.77;;;8.50;27.40;;;;;;5041188;28;45802;-78
2023/12/27 01:17:09;;;;;;;26.47;10.53;;;8.30;27.50;;;;;;5041841;28;46506;-76
2023/12/27 01:19:35;;;;;;;16.90;5.93;;;8.20;27.80;;;;;;5043277;28;46470;-76
2023/12/27 01:22:00;;;;;;;12.93;3.43;;;8.10;28.00;;;;;;5044131;28;47014;-75
2023/12/27 01:24:26;;;;;;;11.50;5.30;;;8.10;28.10;;;;;;5045579;28;46551;-78
2023/12/27 01:26:51;;;;;;;7.70;3.10;;;8.10;28.10;;;;;;5026488;28;46551;-76
2023/12/27 01:29:17;;;;;;;5.40;2.10;;;8.10;28.00;;;;;;5043780;28;46225;-77
2023/12/27 01:31:42;;;;;;;4.63;2.20;;;8.10;28.00;;;;;;5045098;28;47047;-78
2023/12/27 01:34:08;;;;;;;5.60;2.60;;;8.20;28.10;;;;;;5023890;28;46800;-76
2023/12/27 01:36:33;;;;;;;6.10;2.70;;;8.30;27.70;;;;;;5042619;28;47268;-76
2023/12/27 01:38:59;;;;;;;6.97;2.60;;;8.40;27.40;;;;;;5045589;28;46447;-76
2023/12/27 01:41:24;;;;;;;4.80;2.30;;;8.50;27.10;;;;;;5041872;28;46412;-77
2023/12/27 01:43:50;;;;;;;9.07;2.40;;;8.50;26.90;;;;;;5023003;28;46499;-76
2023/12/27 01:46:16;;;;;;;7.27;2.70;;;8.60;26.80;;;;;;5042071;28;46407;-74
2023/12/27 01:48:42;;;;;;;5.63;2.43;;;8.60;26.60;;;;;;5039192;28;46479;-76
2023/12/27 01:51:08;;;;;;;7.63;2.50;;;8.60;26.50;;;;;;5037615;28;47062;-77
2023/12/27 01:53:34;;;;;;;10.27;2.60;;;8.60;26.50;;;;;;5041356;28;46483;-75
2023/12/27 01:56:01;;;;;;;7.57;2.13;;;8.60;26.80;;;;;;5041129;28;46393;-75
2023/12/27 01:58:27;;;;;;;8.10;2.40;;;8.50;27.00;;;;;;5039414;28;46428;-78
2023/12/27 02:00:53;;;;;;;5.33;2.53;;;8.50;27.10;;;;;;5023202;28;48137;-79
2023/12/27 02:03:18;;;;;;;9.17;2.57;;;8.50;27.10;;;;;;5041064;28;46658;-75
2023/12/27 02:05:45;;;;;;;4.97;1.93;;;8.50;27.10;;;;;;5041206;28;46657;-77
2023/12/27 02:08:13;;;;;;;6.90;2.47;;;8.50;27.30;;;;;;5041521;28;46450;-76
2023/12/27 02:10:40;;;;;;;8.17;2.90;;;8.50;27.30;;;;;;5039778;28;46391;-76
2023/12/27 02:13:06;;;;;;;15.20;2.83;;;8.50;27.40;;;;;;5039450;28;46859;-77
2023/12/27 02:15:32;;;;;;;10.37;3.10;;;8.50;27.50;;;;;;5039747;28;46503;-79
2023/12/27 02:18:01;;;;;;;6.07;2.50;;;8.50;27.60;;;;;;5040287;28;46462;-78
2023/12/27 02:20:27;;;;;;;6.47;2.50;;;8.50;27.60;;;;;;5021518;28;48229;-77
2023/12/27 02:22:54;;;;;;;4.97;2.20;;;8.50;27.60;;;;;;5020340;28;46651;-77
2023/12/27 02:25:20;;;;;;;7.73;2.90;;;8.50;27.50;;;;;;5022204;28;46831;-77
2023/12/27 02:27:46;;;;;;;7.37;3.17;;;8.50;27.50;;;;;;5042798;28;46920;-77
2023/12/27 02:30:19;;;;;;;8.27;2.60;;;8.50;27.50;;;;;;5020659;28;48170;-77
2023/12/27 02:32:49;;;;;;;7.30;2.33;;;8.40;27.50;;;;;;5040108;28;46483;-77
2023/12/27 02:35:15;;;;;;;7.13;2.63;;;8.40;27.70;;;;;;5040505;28;46499;-76
2023/12/27 02:37:41;;;;;;;6.60;2.73;;;8.40;27.80;;;;;;5041962;28;46705;-75
2023/12/27 02:40:08;;;;;;;8.00;3.37;;;8.40;28.70;;;;;;5021262;28;48187;-76
2023/12/27 02:42:35;;;;;;;3.93;2.47;;;8.40;27.70;;;;;;5025137;28;46686;-77
2023/12/27 02:45:01;;;;;;;8.10;2.53;;;8.50;27.80;;;;;;5039673;28;46708;-76
2023/12/27 02:47:26;;;;;;;7.30;2.57;;;8.50;27.70;;;;;;5038327;28;46505;-76
2023/12/27 02:49:52;;;;;;;5.60;2.67;;;8.50;27.70;;;;;;5040267;28;46713;-77
2023/12/27 02:52:17;;;;;;;8.63;2.47;;;8.50;27.80;;;;;;5037103;28;46468;-76
2023/12/27 02:54:43;;;;;;;5.60;2.37;;;8.50;27.90;;;;;;5022319;28;46431;-76
2023/12/27 02:57:08;;;;;;;9.73;2.37;;;8.40;27.80;;;;;;5039654;28;46471;-75
2023/12/27 02:59:34;;;;;;;5.67;3.13;;;8.40;27.90;;;;;;5036999;28;47175;-76
2023/12/27 03:01:59;;;;;;;9.63;2.90;;;8.50;28.00;;;;;;5019868;28;46956;-76
2023/12/27 03:04:25;;;;;;;5.17;2.27;;;8.40;28.00;;;;;;5038517;28;46789;-77
2023/12/27 03:06:50;;;;;;;6.00;2.30;;;8.40;28.10;;;;;;5038801;28;46455;-76
2023/12/27 03:09:16;;;;;;;7.37;2.80;;;8.40;28.40;;;;;;5036595;28;46436;-76
2023/12/27 03:11:42;;;;;;;6.53;2.53;;;8.40;28.40;;;;;;5037912;28;46172;-76
2023/12/27 03:14:07;;;;;;;12.77;2.97;;;8.40;28.40;;;;;;5038941;28;47657;-78
2023/12/27 03:16:33;;;;;;;8.13;2.90;;;8.40;28.40;;;;;;5039308;28;46865;-79
2023/12/27 03:18:59;;;;;;;5.57;2.00;;;8.50;28.40;;;;;;5039640;28;47364;-77
2023/12/27 03:21:25;;;;;;;7.50;2.10;;;8.40;28.40;;;;;;5020932;28;46508;-76
2023/12/27 03:23:51;;;;;;;9.13;2.70;;;8.30;28.60;;;;;;5039040;28;46494;-76
2023/12/27 03:26:16;;;;;;;5.30;2.10;;;8.30;28.80;;;;;;5039943;28;45964;-76
2023/12/27 03:28:42;;;;;;;5.20;2.13;;;8.30;28.70;;;;;;5036339;28;46678;-77
2023/12/27 03:31:08;;;;;;;4.07;1.90;;;8.40;28.70;;;;;;5038676;28;46533;-78
2023/12/27 03:33:33;;;;;;;5.87;2.33;;;8.40;28.60;;;;;;5033553;28;46431;-78
2023/12/27 03:35:59;;;;;;;4.40;2.00;;;8.50;28.40;;;;;;5038919;28;46487;-78
2023/12/27 03:38:24;;;;;;;5.17;2.23;;;8.50;28.30;;;;;;5020451;28;48034;-77
2023/12/27 03:40:50;;;;;;;7.17;2.40;;;8.50;28.30;;;;;;5036983;28;46376;-77
2023/12/27 03:43:16;;;;;;;4.27;1.87;;;8.50;28.50;;;;;;5038030;28;47039;-77
2023/12/27 03:45:41;;;;;;;3.20;1.97;;;8.50;28.60;;;;;;5039867;28;46313;-77
2023/12/27 03:48:07;;;;;;;6.73;2.77;;;8.40;28.70;;;;;;5038581;28;46665;-77
2023/12/27 03:50:33;;;;;;;6.73;2.17;;;8.40;28.70;;;;;;5020726;28;46573;-76
2023/12/27 03:52:58;;;;;;;4.30;2.13;;;8.40;28.70;;;;;;5019799;28;46333;-77
2023/12/27 03:55:25;;;;;;;11.07;2.90;;;8.40;28.70;;;;;;5018047;28;46523;-77
2023/12/27 03:57:51;;;;;;;4.00;2.30;;;8.30;28.80;;;;;;5036030;28;47507;-77
2023/12/27 04:00:17;;;;;;;5.73;2.47;;;8.20;29.10;;;;;;5036471;28;46472;-76
2023/12/27 04:02:43;;;;;;;4.83;2.30;;;8.10;29.40;;;;;;5037250;28;45913;-77
2023/12/27 04:05:09;;;;;;;6.30;2.40;;;8.10;29.50;;;;;;5020212;28;46568;-78
2023/12/27 04:07:34;;;;;;;5.63;2.10;;;8.00;29.50;;;;;;5038718;28;46485;-77
2023/12/27 04:10:00;;;;;;;5.50;2.37;;;8.00;29.60;;;;;;5037207;28;47792;-75
2023/12/27 04:12:26;;;;;;;6.97;2.50;;;8.00;30.80;;;;;;5036358;28;46635;-75
2023/12/27 04:14:51;;;;;;;9.77;2.87;;;7.90;29.80;;;;;;5039154;28;46807;-76
2023/12/27 04:17:17;;;;;;;10.30;2.40;;;7.80;30.00;;;;;;5037641;28;46658;-77
2023/12/27 04:19:42;;;;;;;5.93;2.27;;;7.70;30.20;;;;;;5021144;28;46504;-77
2023/12/27 04:22:08;;;;;;;6.87;2.13;;;7.60;30.50;;;;;;5019631;28;46579;-75
2023/12/27 04:24:34;;;;;;;8.13;2.77;;;7.50;30.50;;;;;;5026222;28;47381;-77
2023/12/27 04:26:59;;;;;;;5.50;2.07;;;7.40;30.90;;;;;;5038450;28;46004;-76
2023/12/27 04:29:25;;;;;;;8.87;2.93;;;7.40;31.00;;;;;;5035926;28;46349;-76
2023/12/27 04:31:50;;;;;;;6.77;2.30;;;7.40;31.00;;;;;;5036256;28;46466;-76
2023/12/27 04:34:16;;;;;;;3.93;2.17;;;7.40;31.00;;;;;;5036383;28;46236;-76
2023/12/27 04:36:42;;;;;;;8.67;2.53;;;7.30;30.90;;;;;;5021022;28;47549;-76
2023/12/27 04:39:07;;;;;;;4.20;2.30;;;7.30;30.80;;;;;;5037357;28;46514;-75
2023/12/27 04:41:33;;;;;;;5.20;2.77;;;7.30;30.80;;;;;;5037028;28;46503;-78
2023/12/27 04:43:59;;;;;;;6.47;2.23;;;7.20;30.90;;;;;;5037014;28;46904;-75
2023/12/27 04:46:25;;;;;;;4.40;2.20;;;7.10;30.80;;;;;;5035873;28;46451;-75
2023/12/27 04:48:50;;;;;;;5.03;2.40;;;7.10;31.00;;;;;;5037338;28;46444;-77
2023/12/27 04:51:16;;;;;;;7.50;2.70;;;7.00;31.10;;;;;;5022569;28;46643;-76
2023/12/27 04:53:42;;;;;;;6.43;2.70;;;7.00;31.40;;;;;;5040377;28;46666;-78
2023/12/27 04:56:08;;;;;;;5.93;2.43;;;6.90;31.50;;;;;;5009785;28;46260;-78
2023/12/27 04:58:35;;;;;;;6.20;2.50;;;6.80;31.60;;;;;;5039404;28;46445;-78
2023/12/27 05:01:04;;;;;;;5.57;2.60;;;6.80;31.90;;;;;;5040368;28;46053;-76
2023/12/27 05:03:29;;;;;;;5.13;2.30;;;6.70;32.10;;;;;;5040106;28;46492;-78
2023/12/27 05:05:55;;;;;;;6.10;2.60;;;6.60;32.20;;;;;;5023185;28;48111;-77
2023/12/27 05:08:20;;;;;;;3.77;2.07;;;6.60;32.40;;;;;;5038372;28;46623;-78
2023/12/27 05:10:46;;;;;;;8.63;2.90;;;6.60;32.70;;;;;;5040510;28;46875;-76
2023/12/27 05:13:11;;;;;;;7.87;2.20;;;6.50;32.70;;;;;;5039883;28;46074;-77
2023/12/27 05:15:37;;;;;;;6.37;3.10;;;6.50;32.80;;;;;;5039602;28;47300;-77
2023/12/27 05:18:03;;;;;;;8.00;2.97;;;6.40;33.00;;;;;;5040843;28;51920;-76
2023/12/27 05:20:29;;;;;;;9.03;3.30;;;6.30;33.20;;;;;;5039684;28;46516;-77
2023/12/27 05:22:54;;;;;;;9.20;5.20;;;6.20;33.50;;;;;;5022483;28;47486;-76
2023/12/27 05:25:20;;;;;;;8.67;3.13;;;6.10;33.90;;;;;;5021453;28;49246;-79
2023/12/27 05:27:45;;;;;;;7.10;2.47;;;6.00;34.20;;;;;;5040592;28;46439;-75
2023/12/27 05:30:11;;;;;;;4.37;2.13;;;5.90;34.60;;;;;;5040152;28;46447;-78
2023/12/27 05:32:37;;;;;;;4.60;2.10;;;5.80;35.00;;;;;;5039182;28;47138;-76
2023/12/27 05:35:03;;;;;;;5.67;2.27;;;5.70;35.70;;;;;;5039960;28;47178;-77
2023/12/27 05:37:28;;;;;;;3.73;2.10;;;5.50;35.50;;;;;;5037419;28;46417;-77
2023/12/27 05:39:54;;;;;;;4.80;2.60;;;5.40;35.50;;;;;;5039797;28;46625;-78
2023/12/27 05:42:19;;;;;;;4.00;2.20;;;5.20;36.20;;;;;;5040242;28;46868;-76
2023/12/27 05:44:45;;;;;;;6.70;2.20;;;5.20;36.80;;;;;;5022105;28;48326;-75
2023/12/27 05:47:10;;;;;;;4.67;2.27;;;5.00;37.20;;;;;;5038669;28;47985;-76
2023/12/27 05:49:36;;;;;;;4.17;2.10;;;4.90;37.60;;;;;;5039302;28;46411;-76
2023/12/27 05:52:02;;;;;;;4.67;2.20;;;4.80;38.10;;;;;;5040515;28;46447;-78
2023/12/27 05:54:27;;;;;;;4.23;2.00;;;4.70;38.30;;;;;;5039896;28;47006;-78
2023/12/27 05:56:53;;;;;;;8.50;2.63;;;4.60;38.40;;;;;;5022633;28;46619;-77
2023/12/27 05:59:21;;;;;;;2.50;1.60;;;4.50;38.40;;;;;;5037968;28;45812;-80
2023/12/27 06:01:53;;;;;;;5.90;2.17;;;4.50;38.50;;;;;;5038546;28;46717;-78
2023/12/27 06:04:19;;;;;;;7.80;2.40;;;4.40;38.40;;;;;;5039684;28;46986;-78
2023/12/27 06:06:44;;;;;;;6.40;2.20;;;4.40;38.50;;;;;;5039124;28;46388;-75
2023/12/27 06:09:10;;;;;;;5.27;2.17;;;4.30;38.50;;;;;;5017130;28;46118;-78
2023/12/27 06:11:37;;;;;;;6.07;2.43;;;4.20;38.80;;;;;;5020372;28;45935;-77
2023/12/27 06:14:03;;;;;;;5.83;2.60;;;4.10;39.00;;;;;;5039351;28;46754;-76
2023/12/27 06:16:29;;;;;;;8.90;2.63;;;4.00;39.10;;;;;;5037701;28;46610;-76
2023/12/27 06:18:56;;;;;;;5.50;2.87;;;4.10;39.40;;;;;;5039266;28;46136;-76
2023/12/27 06:21:22;;;;;;;5.23;2.60;;;3.90;39.30;;;;;;5039873;28;47064;-77
2023/12/27 06:23:47;;;;;;;5.37;2.27;;;3.80;39.30;;;;;;5039210;28;46402;-76
2023/12/27 06:26:13;;;;;;;8.33;2.53;;;3.80;39.30;;;;;;5040416;28;46976;-77
2023/12/27 06:28:41;;;;;;;6.40;3.00;;;3.80;39.40;;;;;;5024046;28;46531;-77
2023/12/27 06:31:07;;;;;;;6.57;2.60;;;3.70;39.30;;;;;;5021635;28;46697;-77
2023/12/27 06:33:32;;;;;;;9.27;3.03;;;3.70;39.30;;;;;;5037958;28;46451;-76
2023/12/27 06:35:58;;;;;;;4.97;2.40;;;3.70;39.10;;;;;;5038762;28;46438;-76
2023/12/27 06:38:23;;;;;;;9.20;3.70;;;3.80;39.20;;;;;;5020343;28;45861;-77
2023/12/27 06:40:49;;;;;;;8.70;4.77;;;3.80;38.90;;;;;;5038423;28;46408;-78
2023/12/27 06:43:14;;;;;;;10.97;4.10;;;3.80;38.90;;;;;;5040315;28;46489;-77
2023/12/27 06:45:40;;;;;;;5.30;3.27;;;3.80;38.90;;;;;;5038991;28;46612;-77
2023/12/27 06:48:06;;;;;;;6.77;3.00;;;3.80;38.80;;;;;;5039646;28;46436;-76
2023/12/27 06:50:31;;;;;;;12.57;4.53;;;3.80;38.80;;;;;;5038617;28;46378;-76
2023/12/27 06:52:57;;;;;;;14.30;4.70;;;3.80;38.90;;;;;;5022643;28;47753;-76
2023/12/27 06:55:23;;;;;;;11.23;3.40;;;3.80;38.90;;;;;;5038632;28;46546;-79
2023/12/27 06:57:48;;;;;;;6.87;3.70;;;3.80;39.10;;;;;;5022063;28;46392;-77
2023/12/27 07:00:14;;;;;;;7.57;3.47;;;3.80;39.00;;;;;;5040318;28;46184;-78
2023/12/27 07:02:40;;;;;;;6.03;3.43;;;3.80;39.20;;;;;;5043973;28;46580;-77
2023/12/27 07:05:07;;;;;;;9.00;3.87;;;3.80;39.10;;;;;;5041492;28;46512;-77
2023/12/27 07:07:33;;;;;;;8.17;4.40;;;3.80;39.10;;;;;;5040804;28;46461;-75
2023/12/27 07:09:59;;;;;;;12.43;5.20;;;3.80;39.20;;;;;;5040351;28;46646;-77
2023/12/27 07:12:24;;;;;;;13.73;4.30;;;3.80;39.20;;;;;;5024691;28;47511;-77
2023/12/27 07:14:50;;;;;;;9.87;3.73;;;3.80;39.30;;;;;;5017849;28;46644;-78
2023/12/27 07:17:16;;;;;;;7.03;3.77;;;3.80;39.20;;;;;;5043528;28;46463;-77
2023/12/27 07:19:41;;;;;;;5.80;3.17;;;3.80;39.10;;;;;;5040562;28;46416;-75
2023/12/27 07:22:07;;;;;;;6.80;3.57;;;3.80;39.00;;;;;;5036926;28;46498;-77
2023/12/27 07:24:32;;;;;;;8.03;3.70;;;3.80;38.90;;;;;;5020332;28;46482;-76
2023/12/27 07:26:58;;;;;;;6.90;4.13;;;3.80;38.90;;;;;;5038117;28;46737;-78
2023/12/27 07:29:24;;;;;;;8.00;3.77;;;3.90;39.00;;;;;;5022431;28;46377;-78
2023/12/27 07:31:49;;;;;;;7.73;4.10;;;3.90;38.80;;;;;;5039116;28;46985;-79
2023/12/27 07:34:16;;;;;;;6.60;2.87;;;4.00;38.60;;;;;;5038272;28;46496;-76
2023/12/27 07:36:43;;;;;;;6.60;2.73;;;4.10;38.30;;;;;;5038747;28;46785;-77
2023/12/27 07:39:09;;;;;;;7.80;2.83;;;4.20;37.80;;;;;;5020816;28;46611;-77
2023/12/27 07:41:35;;;;;;;8.90;2.47;;;4.30;37.60;;;;;;5020106;28;48991;-77
2023/12/27 07:44:01;;;;;;;5.60;3.25;;;4.30;37.20;;;;;;5037862;28;46372;-78
2023/12/27 07:46:27;;;;;;;5.17;2.90;;;4.40;38.30;;;;;;5038571;28;45868;-79
2023/12/27 07:48:53;;;;;;;6.03;2.50;;;4.40;37.10;;;;;;5036448;28;46570;-76
2023/12/27 07:51:19;;;;;;;5.43;2.63;;;4.30;37.20;;;;;;5038460;28;46479;-78
2023/12/27 07:53:45;;;;;;;5.03;2.63;;;4.30;37.50;;;;;;5036132;28;46474;-77
2023/12/27 07:56:12;;;;;;;7.30;3.77;;;4.30;37.40;;;;;;5038956;28;46975;-77
2023/12/27 07:58:38;;;;;;;8.80;3.77;;;4.30;37.60;;;;;;5035550;28;46606;-76
2023/12/27 08:01:03;;;;;;;4.63;2.73;;;4.30;37.80;;;;;;5018931;28;48288;-77
2023/12/27 08:03:29;;;;;;;5.00;2.43;;;4.20;37.70;;;;;;5021150;28;46846;-77
2023/12/27 08:05:54;;;;;;;3.50;2.23;;;4.30;37.70;;;;;;5020257;28;46518;-75
2023/12/27 08:08:20;;;;;;;4.83;2.50;;;4.40;37.50;;;;;;5038842;28;46844;-78
2023/12/27 08:10:46;;;;;;;5.80;3.50;;;4.50;37.20;;;;;;5038824;28;46891;-77
2023/12/27 08:13:11;;;;;;;3.87;2.13;;;4.50;36.90;;;;;;5038330;28;46200;-78
2023/12/27 08:15:37;;;;;;;4.87;2.40;;;4.60;36.70;;;;;;5024447;28;46748;-76
2023/12/27 08:18:03;;;;;;;5.80;2.70;;;4.60;36.30;;;;;;5037899;28;46359;-75
2023/12/27 08:20:29;;;;;;;5.57;2.40;;;4.70;36.10;;;;;;5036164;28;46734;-77
2023/12/27 08:22:55;;;;;;;3.70;2.07;;;4.80;35.70;;;;;;5037480;28;46943;-76
2023/12/27 08:25:21;;;;;;;4.80;1.97;;;5.00;35.20;;;;;;5042764;28;46609;-77
2023/12/27 08:27:46;;;;;;;3.40;1.90;;;5.20;34.80;;;;;;5023250;28;46421;-75
2023/12/27 08:30:13;;;;;;;4.57;2.50;;;5.40;33.80;;;;;;5042446;28;46049;-77
2023/12/27 08:32:38;;;;;;;6.90;3.40;;;5.60;33.20;;;;;;5035596;28;46404;-76
2023/12/27 08:35:04;;;;;;;3.37;2.20;;;5.80;32.50;;;;;;5039491;28;47036;-76
2023/12/27 08:37:30;;;;;;;5.83;2.20;;;6.00;31.80;;;;;;5038136;28;46694;-77
2023/12/27 08:39:55;;;;;;;6.83;2.70;;;6.20;31.50;;;;;;5040916;28;47276;-76
2023/12/27 08:42:21;;;;;;;5.33;2.33;;;6.40;31.30;;;;;;5041381;28;46546;-75
2023/12/27 08:44:46;;;;;;;3.20;1.90;;;6.50;31.00;;;;;;5022130;28;46521;-76
2023/12/27 08:47:12;;;;;;;4.70;2.40;;;6.60;30.70;;;;;;5041978;28;46558;-76
2023/12/27 08:49:38;;;;;;;5.53;2.40;;;6.60;30.70;;;;;;5039195;28;46731;-78
2023/12/27 08:52:04;;;;;;;9.57;2.87;;;6.70;30.60;;;;;;5036414;28;46435;-76
2023/12/27 08:54:29;;;;;;;6.73;2.60;;;6.80;30.50;;;;;;5040381;28;46530;-76
2023/12/27 08:56:55;;;;;;;5.00;2.90;;;6.90;30.40;;;;;;5021595;28;46410;-76
2023/12/27 08:59:21;;;;;;;5.23;2.70;;;7.00;30.40;;;;;;5041339;28;46746;-77
2023/12/27 09:01:47;;;;;;;7.17;3.40;;;7.10;30.30;;;;;;5036485;28;46449;-76
2023/12/27 09:04:13;;;;;;;5.57;3.07;;;7.30;30.30;;;;;;5039532;28;46465;-78
2023/12/27 09:06:38;;;;;;;9.90;5.87;;;7.30;30.10;;;;;;5039437;28;46537;-76
2023/12/27 09:09:04;;;;;;;8.80;4.13;;;7.40;30.20;;;;;;5019951;28;48043;-76
2023/12/27 09:11:29;;;;;;;5.47;3.40;;;7.40;30.40;;;;;;5039403;28;46449;-78
2023/12/27 09:13:55;;;;;;;3.70;2.57;;;7.40;30.20;;;;;;5020291;28;46519;-77
2023/12/27 09:16:20;;;;;;;7.33;3.03;;;7.50;30.30;;;;;;5039728;28;46897;-78
2023/12/27 09:18:46;;;;;;;4.83;2.90;;;7.40;30.30;;;;;;5040620;28;46638;-81
2023/12/27 09:21:13;;;;;;;4.70;2.70;;;7.40;30.40;;;;;;5034624;28;46596;-77
2023/12/27 09:23:38;;;;;;;4.40;2.70;;;7.30;30.30;;;;;;5027126;28;47014;-78
2023/12/27 09:26:11;;;;;;;4.10;2.20;;;7.30;30.20;;;;;;5039472;28;47057;-78
2023/12/27 09:28:36;;;;;;;4.93;2.70;;;7.30;30.10;;;;;;5036357;28;46869;-77
2023/12/27 09:31:02;;;;;;;3.77;2.40;;;7.30;29.90;;;;;;5039877;28;46487;-79
2023/12/27 09:33:28;;;;;;;3.37;1.93;;;7.40;30.00;;;;;;5034323;28;47818;-77
2023/12/27 09:35:54;;;;;;;4.50;2.23;;;7.50;29.80;;;;;;5040442;28;46687;-79
2023/12/27 09:38:20;;;;;;;6.40;2.40;;;7.60;29.60;;;;;;5040327;28;46421;-77
2023/12/27 09:40:46;;;;;;;7.23;1.83;;;7.70;29.40;;;;;;5036533;28;47021;-77
2023/12/27 09:43:13;;;;;;;3.60;1.70;;;7.70;29.00;;;;;;5021521;28;46322;-77
2023/12/27 09:45:41;;;;;;;3.27;2.00;;;7.90;28.70;;;;;;5038050;28;46669;-77
2023/12/27 09:48:10;;;;;;;3.90;2.00;;;8.20;28.30;;;;;;5020556;28;48160;-77
2023/12/27 09:50:37;;;;;;;3.80;2.23;;;8.40;27.60;;;;;;5034907;28;46432;-77
2023/12/27 09:53:04;;;;;;;3.23;1.97;;;8.50;26.90;;;;;;5036944;28;46415;-77
2023/12/27 09:55:30;;;;;;;3.87;2.20;;;8.60;26.20;;;;;;5020715;28;46420;-76
2023/12/27 09:57:55;;;;;;;4.23;2.00;;;8.70;26.00;;;;;;5038255;28;46459;-77
2023/12/27 10:00:27;;;;;;;4.20;2.40;;;8.80;26.10;;;;;;5037422;28;45961;-77
2023/12/27 10:02:58;;;;;;;8.10;2.20;;;8.90;26.10;;;;;;5039277;28;46282;-78
2023/12/27 10:05:30;;;;;;;4.50;2.43;;;9.00;26.00;;;;;;5041759;28;45823;-78
2023/12/27 10:07:56;;;;;;;5.13;2.40;;;9.10;25.50;;;;;;5042863;28;46685;-77
2023/12/27 10:10:22;;;;;;;4.27;2.30;;;9.20;25.30;;;;;;5039477;28;46752;-77
2023/12/27 10:12:49;;;;;;;4.13;2.30;;;9.40;25.40;;;;;;5037885;28;46364;-77
2023/12/27 10:15:15;;;;;;;4.37;2.20;;;9.40;25.20;;;;;;5038758;28;46740;-78
2023/12/27 10:17:41;;;;;;;4.77;2.30;;;9.50;24.70;;;;;;5038751;28;46479;-77
2023/12/27 10:20:08;;;;;;;3.47;1.90;;;9.50;24.30;;;;;;5019541;28;47073;-78
2023/12/27 10:22:34;;;;;;;2.77;1.53;;;9.50;24.20;;;;;;5037439;28;46454;-78
2023/12/27 10:24:59;;;;;;;2.30;1.40;;;9.50;23.40;;;;;;5014287;28;46746;-79
2023/12/27 10:27:29;;;;;;;3.53;1.50;;;9.50;23.10;;;;;;5038353;28;46388;-78
2023/12/27 10:29:56;;;;;;;3.63;1.70;;;9.50;23.20;;;;;;5021864;28;47386;-78
2023/12/27 10:32:21;;;;;;;2.40;1.40;;;9.50;23.10;;;;;;5037648;28;46460;-79
2023/12/27 10:34:47;;;;;;;6.40;1.40;;;9.50;23.10;;;;;;5039355;28;46701;-78
2023/12/27 10:37:13;;;;;;;3.63;1.73;;;9.40;21.90;;;;;;5040223;28;46662;-78
2023/12/27 10:39:45;;;;;;;2.43;1.53;;;9.30;21.50;;;;;;5040964;28;46674;-78
2023/12/27 10:42:18;;;;;;;2.53;1.20;;;9.30;21.80;;;;;;5012864;28;46440;-76
2023/12/27 10:44:49;;;;;;;3.37;1.70;;;9.30;21.70;;;;;;5037612;28;46635;-76
2023/12/27 10:47:17;;;;;;;5.80;1.67;;;9.30;21.70;;;;;;5036532;28;46916;-76
2023/12/27 10:49:46;;;;;;;3.17;1.60;;;9.30;21.80;;;;;;5039020;28;46203;-78
2023/12/27 10:52:13;;;;;;;3.33;1.73;;;9.30;21.30;;;;;;5038113;28;46480;-78
2023/12/27 10:54:44;;;;;;;3.43;1.23;;;9.30;21.10;;;;;;5038756;28;47674;-76
2023/12/27 10:57:15;;;;;;;2.97;1.40;;;9.30;21.10;;;;;;5038671;28;47033;-77
2023/12/27 10:59:43;;;;;;;2.63;1.30;;;9.30;20.40;;;;;;5036968;28;46536;-80
2023/12/27 11:02:09;;;;;;;2.57;1.40;;;9.20;20.50;;;;;;5019463;28;46431;-78
2023/12/27 11:04:37;;;;;;;3.87;1.43;;;9.20;20.60;;;;;;5036993;28;46436;-79
2023/12/27 11:07:03;;;;;;;3.80;1.60;;;9.40;20.70;;;;;;5019980;28;48031;-79
2023/12/27 11:09:31;;;;;;;3.13;1.50;;;9.30;20.50;;;;;;5018115;28;46556;-77
2023/12/27 11:11:58;;;;;;;2.60;1.50;;;9.40;20.30;;;;;;5036195;28;47052;-77
2023/12/27 11:14:24;;;;;;;4.67;1.67;;;9.40;20.20;;;;;;5036587;28;46759;-77
2023/12/27 11:16:54;;;;;;;2.90;1.70;;;9.50;20.20;;;;;;5018836;28;48390;-78
2023/12/27 11:19:22;;;;;;;3.33;1.77;;;9.50;20.10;;;;;;5041869;28;46201;-77
2023/12/27 11:21:47;;;;;;;3.87;2.00;;;9.60;19.80;;;;;;5035726;28;46438;-77
2023/12/27 11:24:13;;;;;;;2.40;1.50;;;9.70;19.60;;;;;;5036742;28;46459;-77
2023/12/27 11:26:39;;;;;;;3.27;1.60;;;9.80;19.40;;;;;;5035741;28;46361;-78
2023/12/27 11:29:09;;;;;;;4.20;1.70;;;9.70;19.30;;;;;;5036874;28;46772;-77
2023/12/27 11:31:36;;;;;;;2.83;1.63;;;9.90;19.20;;;;;;5038374;28;46504;-78
2023/12/27 11:34:04;;;;;;;2.70;1.47;;;9.90;19.00;;;;;;5034490;28;47085;-78
2023/12/27 11:36:30;;;;;;;2.33;1.43;;;10.00;18.20;;;;;;5038769;28;46964;-78
2023/12/27 11:38:55;;;;;;;2.57;1.50;;;10.00;17.60;;;;;;5038114;28;46463;-80
2023/12/27 11:41:21;;;;;;;3.67;1.70;;;10.00;16.90;;;;;;5041518;28;46077;-80
2023/12/27 11:43:55;;;;;;;2.50;1.30;;;10.00;16.90;;;;;;5008887;28;46947;-79
2023/12/27 11:46:27;;;;;;;3.43;1.57;;;10.00;16.90;;;;;;5042281;28;47316;-79
2023/12/27 11:48:54;;;;;;;2.93;1.47;;;10.10;16.80;;;;;;5039006;28;46634;-76
2023/12/27 11:51:32;;;;;;;3.00;1.50;;;10.20;16.90;;;;;;5034856;28;46571;-78
2023/12/27 11:53:58;;;;;;;2.73;1.27;;;10.20;16.20;;;;;;5016663;28;46572;-77
2023/12/27 11:56:28;;;;;;;6.00;2.50;;;10.20;16.20;;;;;;5036116;28;46689;-79
2023/12/27 11:58:53;;;;;;;5.37;2.33;;;10.20;16.10;;;;;;5033349;28;46853;-80
2023/12/27 12:01:20;;;;;;;3.20;1.70;;;10.30;15.50;;;;;;5035594;28;46744;-77
2023/12/27 12:03:56;;;;;;;5.43;1.90;;;10.30;15.50;;;;;;5034306;28;46764;-78
2023/12/27 12:06:43;;;;;;;4.63;1.83;;;10.40;15.60;;;;;;5035559;28;47421;-79
2023/12/27 12:09:09;;;;;;;3.73;1.80;;;10.30;15.50;;;;;;5018259;28;46533;-80
2023/12/27 12:11:35;;;;;;;3.83;2.00;;;10.30;15.30;;;;;;5033655;28;47266;-77
2023/12/27 12:14:02;;;;;;;3.00;1.67;;;10.20;14.70;;;;;;5035041;28;46706;-78
2023/12/27 12:16:31;;;;;;;3.80;1.97;;;10.20;15.00;;;;;;5033372;28;46492;-76
2023/12/27 12:18:58;;;;;;;3.23;1.60;;;10.20;14.80;;;;;;5017628;28;46670;-77
2023/12/27 12:21:24;;;;;;;4.33;1.60;;;10.30;15.20;;;;;;5035419;28;46526;-79
2023/12/27 12:23:49;;;;;;;5.07;1.67;;;10.30;14.60;;;;;;5037190;28;46563;-77
2023/12/27 12:26:16;;;;;;;3.10;1.80;;;10.30;14.10;;;;;;5019005;28;47952;-79
2023/12/27 12:28:53;;;;;;;2.73;1.57;;;10.40;14.20;;;;;;5020848;28;46731;-80
2023/12/27 12:31:19;;;;;;;2.73;1.50;;;10.50;13.90;;;;;;5034213;28;46883;-78
2023/12/27 12:33:44;;;;;;;4.70;1.60;;;10.50;13.80;;;;;;5017482;28;46598;-78
2023/12/27 12:36:10;;;;;;;3.87;1.40;;;10.60;13.40;;;;;;5035031;28;47503;-79
2023/12/27 12:38:36;;;;;;;3.47;1.13;;;10.60;12.90;;;;;;5035589;28;47199;-78
2023/12/27 12:41:01;;;;;;;3.37;1.80;;;10.70;12.60;;;;;;5035511;28;46630;-79
2023/12/27 12:43:27;;;;;;;9.03;4.07;;;10.70;12.60;;;;;;5037694;28;46340;-77
2023/12/27 12:45:56;;;;;;;11.90;6.60;;;10.70;12.50;;;;;;5035814;28;47016;-76
2023/12/27 12:48:21;;;;;;;3.10;2.07;;;10.70;12.60;;;;;;5036402;28;46857;-75
2023/12/27 12:50:47;;;;;;;3.20;1.57;;;10.80;12.40;;;;;;5036133;28;46851;-78